Current Weather

Mae Hong Son

Mae Hong Son, Thailand (VTCH)

Report from: Sunday, April 21, 2024 6:00 PM +07
Current time: Monday, April 22, 2024 4:01 AM +07

Nearby weather – Weather history – Daily summaries
Weather forecast

Temperature38.0°C (100.4°F)
Heat index39.2°C (102.6°F)
Dew point17.0°C (62.6°F)
Winds 6 kts (3.1 m/s, 6.9 mph) Vrb
Winds variableWinds variable from South-Southeast (160°) to Northwest (320°)
Visibility6.2 mi. (10 km)
Clouds Few clouds 2,500 ft. (762 m)
Altimeter29.62 in.Hg (1003 mB)
Relative humidity29 %
Density altitude3,203 ft. (976 m)
Flight conditions Visual Meteorological Conditions
Raw dataVTCH 211100Z 22006KT 160V320 9999 FEW025 38/17 Q1003
An error has occurred. This application may no longer respond until reloaded. Reload 🗙